Etusivu
METAR-TAF:

METAR-TAF

Lentoasemat :

Whale Coven lentoasema

Whale Cove, Nunavut, Kanada

Leveyspiiri: 62-14N, Pituuspiiri: 092-36W, korkeus merenpinnasta: 20 m

Tämänhetkinen sää

Tämä raportti tehtiin 13 tuntia ja 51 minuuttia sitten, kello 22.00 UTC
Tuuli 7 kn lännestä
Lämpötila -16°C
Kosteus 71%
Ilmanpaine 1045 hPa
Näkyvyys: 24.1 km
Muutamia pilviä 1000 ft:n korkeudessa
Hajanaisia pilviä 20000 ft:n korkeudessa

METAR: CYXN 132200Z 26007KT 15SM FEW010 SCT200 M16/M20 A3086 RMK SC1CI2 LAST STFD OBS/NXT 141300Z SLP453

Aika: 06:51 (11:51 UTC)


TAF: puuttuu

Säähavainnot ja -ennusteet yli 4000 lentoasemalta (METAR- ja TAF-raportit).

Käytössä olevat sääasemat on merkitty karttaan keltaisilla ja punaisilla pisteillä.

Aseta hiiri pisteen päälle nähdäksesi sääaseman nimen.

Klikkaa sitten nähdäksesi säähavainnot ja -ennusteet.

Kartan vaihtaminen: klikkaa mustalla rastilla varustettuja vihreitä pisteitä, niin voit zoomata sisään; viivalla varustettua vihreää pistettä, niin voit zoomata ulos tai vihreitä nuolia, niin pääset viereisille kartoille.


METAR-TAF: